SIA418 YPDN-AYPY
Flight info
| Callsign | SIA418 |
|---|---|
| Flight time | N/A |
| Altitude | 41000 |
| Route | DN Y25 RUPEG DCT IGOPO B598 ESKIM DCT GUMBU DCT PY |
| Aircraft | A359/H-SDE2E3GHIJ3J4J5LM1ORWXY/LB1D1 |
Departure
| Time | 2026-04-29 09:06 |
|---|---|
| Airport | Darwin International Airport / RAAF Darwin (YPDN) |
Arrival
| Time | N/A |
|---|---|
| Airport | Port Moresby Jacksons International Airport (AYPY) |
| Time | Latitude | Longitude | Altitude | Speed | Heading |
|---|---|---|---|---|---|
| 2026-04-29 08:44 | -12.40899 | 130.87735 | 99 ft | 0 kts | 16° |
| 2026-04-29 08:55 | -12.40900 | 130.87734 | 99 ft | 1 kts | 16° |
| 2026-04-29 08:56 | -12.40912 | 130.87730 | 101 ft | 2 kts | 8° |
| 2026-04-29 08:56 | -12.40924 | 130.87729 | 99 ft | 2 kts | 347° |
| 2026-04-29 08:56 | -12.40936 | 130.87734 | 100 ft | 2 kts | 318° |
| 2026-04-29 08:56 | -12.40945 | 130.87744 | 98 ft | 2 kts | 288° |
| 2026-04-29 08:57 | -12.40948 | 130.87754 | 99 ft | 1 kts | 292° |
| 2026-04-29 08:57 | -12.40952 | 130.87764 | 99 ft | 1 kts | 292° |
| 2026-04-29 08:57 | -12.40956 | 130.87774 | 100 ft | 2 kts | 288° |
| 2026-04-29 08:57 | -12.40958 | 130.87777 | 100 ft | 0 kts | 279° |
| 2026-04-29 09:00 | -12.40955 | 130.87764 | 104 ft | 7 kts | 281° |
| 2026-04-29 09:01 | -12.40951 | 130.87685 | 100 ft | 11 kts | 262° |
| 2026-04-29 09:01 | -12.40984 | 130.87617 | 104 ft | 10 kts | 230° |
| 2026-04-29 09:01 | -12.41031 | 130.87591 | 105 ft | 6 kts | 201° |
| 2026-04-29 09:01 | -12.41072 | 130.87576 | 107 ft | 6 kts | 199° |
| 2026-04-29 09:02 | -12.41111 | 130.87562 | 104 ft | 6 kts | 199° |
| 2026-04-29 09:02 | -12.41150 | 130.87548 | 106 ft | 6 kts | 199° |
| 2026-04-29 09:02 | -12.41201 | 130.87530 | 106 ft | 10 kts | 200° |
| 2026-04-29 09:02 | -12.41246 | 130.87480 | 105 ft | 10 kts | 250° |
| 2026-04-29 09:03 | -12.41232 | 130.87394 | 105 ft | 15 kts | 288° |
| 2026-04-29 09:03 | -12.41184 | 130.87255 | 105 ft | 26 kts | 289° |
| 2026-04-29 09:03 | -12.41119 | 130.87069 | 106 ft | 29 kts | 289° |
| 2026-04-29 09:03 | -12.41051 | 130.86872 | 107 ft | 29 kts | 289° |
| 2026-04-29 09:04 | -12.41001 | 130.86678 | 114 ft | 26 kts | 269° |
| 2026-04-29 09:04 | -12.41020 | 130.86558 | 114 ft | 9 kts | 290° |
| 2026-04-29 09:04 | -12.40991 | 130.86531 | 116 ft | 5 kts | 340° |
| 2026-04-29 09:04 | -12.40952 | 130.86536 | 114 ft | 5 kts | 28° |
| 2026-04-29 09:05 | -12.40947 | 130.86560 | 113 ft | 3 kts | 90° |
| 2026-04-29 09:05 | -12.40952 | 130.86575 | 114 ft | 0 kts | 107° |
| 2026-04-29 09:05 | -12.40953 | 130.86578 | 114 ft | 1 kts | 107° |
| 2026-04-29 09:06 | -12.41023 | 130.86791 | 110 ft | 80 kts | 108° |
| 2026-04-29 09:06 | -12.41313 | 130.87644 | 119 ft | 169 kts | 107° |
| 2026-04-29 09:06 | -12.41638 | 130.88670 | 1438 ft | 141 kts | 105° |
| 2026-04-29 09:06 | -12.41944 | 130.89594 | 2060 ft | 139 kts | 108° |
| 2026-04-29 09:07 | -12.42281 | 130.90578 | 2274 ft | 155 kts | 108° |
| 2026-04-29 09:07 | -12.42659 | 130.91689 | 2461 ft | 177 kts | 108° |
| 2026-04-29 09:07 | -12.43087 | 130.92957 | 2642 ft | 200 kts | 108° |
| 2026-04-29 09:07 | -12.43558 | 130.94354 | 2840 ft | 221 kts | 108° |
| 2026-04-29 09:08 | -12.44082 | 130.95915 | 3075 ft | 243 kts | 108° |
| 2026-04-29 09:08 | -12.44642 | 130.97585 | 3506 ft | 252 kts | 108° |
| 2026-04-29 09:08 | -12.45215 | 130.99291 | 4118 ft | 254 kts | 108° |
| 2026-04-29 09:08 | -12.45788 | 131.00998 | 4845 ft | 253 kts | 108° |
| 2026-04-29 09:09 | -12.46360 | 131.02704 | 5478 ft | 255 kts | 108° |
| 2026-04-29 09:09 | -12.46879 | 131.04441 | 6113 ft | 256 kts | 103° |
| 2026-04-29 09:09 | -12.47210 | 131.06208 | 6717 ft | 258 kts | 100° |
| 2026-04-29 09:09 | -12.47499 | 131.08042 | 7404 ft | 265 kts | 99° |
| 2026-04-29 09:10 | -12.47789 | 131.09921 | 8201 ft | 270 kts | 99° |
| 2026-04-29 09:10 | -12.48086 | 131.11834 | 8960 ft | 274 kts | 99° |
| 2026-04-29 09:10 | -12.48390 | 131.13777 | 9494 ft | 280 kts | 99° |
| 2026-04-29 09:10 | -12.48702 | 131.15773 | 9944 ft | 286 kts | 99° |
| 2026-04-29 09:11 | -12.49021 | 131.17813 | 10271 ft | 297 kts | 99° |
| 2026-04-29 09:11 | -12.49356 | 131.19947 | 10464 ft | 311 kts | 99° |
| 2026-04-29 09:11 | -12.49706 | 131.22178 | 10647 ft | 324 kts | 99° |
| 2026-04-29 09:11 | -12.50066 | 131.24471 | 10823 ft | 337 kts | 99° |
| 2026-04-29 09:12 | -12.50444 | 131.26877 | 10988 ft | 348 kts | 99° |
| 2026-04-29 09:12 | -12.50833 | 131.29362 | 11156 ft | 359 kts | 100° |
| 2026-04-29 09:12 | -12.51232 | 131.31906 | 11410 ft | 365 kts | 100° |
| 2026-04-29 09:12 | -12.51635 | 131.34483 | 11745 ft | 368 kts | 100° |
| 2026-04-29 09:13 | -12.52040 | 131.37079 | 12110 ft | 371 kts | 100° |
| 2026-04-29 09:13 | -12.52450 | 131.39698 | 12462 ft | 374 kts | 100° |
| 2026-04-29 09:13 | -12.52861 | 131.42332 | 12808 ft | 377 kts | 101° |
| 2026-04-29 09:13 | -12.53276 | 131.44992 | 13138 ft | 379 kts | 101° |
| 2026-04-29 09:14 | -12.53688 | 131.47631 | 13463 ft | 382 kts | 101° |
| 2026-04-29 09:14 | -12.54108 | 131.50324 | 13795 ft | 385 kts | 101° |
| 2026-04-29 09:14 | -12.54530 | 131.53035 | 14089 ft | 386 kts | 101° |
| 2026-04-29 09:14 | -12.54953 | 131.55758 | 14402 ft | 388 kts | 101° |
| 2026-04-29 09:15 | -12.55378 | 131.58490 | 14719 ft | 390 kts | 101° |
| 2026-04-29 09:15 | -12.55805 | 131.61235 | 15038 ft | 391 kts | 101° |
| 2026-04-29 09:15 | -12.56197 | 131.63994 | 15338 ft | 394 kts | 97° |
| 2026-04-29 09:15 | -12.56182 | 131.66807 | 15644 ft | 398 kts | 85° |
| 2026-04-29 09:16 | -12.55766 | 131.69611 | 15962 ft | 400 kts | 81° |
| 2026-04-29 09:16 | -12.55191 | 131.72364 | 16260 ft | 402 kts | 78° |
| 2026-04-29 09:16 | -12.54514 | 131.75144 | 16583 ft | 404 kts | 77° |
| 2026-04-29 09:16 | -12.53795 | 131.77926 | 16903 ft | 405 kts | 76° |
| 2026-04-29 09:17 | -12.53064 | 131.80720 | 17233 ft | 407 kts | 76° |
| 2026-04-29 09:17 | -12.52336 | 131.83524 | 17535 ft | 408 kts | 76° |
| 2026-04-29 09:17 | -12.51617 | 131.86337 | 17834 ft | 410 kts | 76° |
| 2026-04-29 09:17 | -12.50902 | 131.89170 | 18147 ft | 412 kts | 76° |
| 2026-04-29 09:18 | -12.50189 | 131.92016 | 18404 ft | 413 kts | 76° |
| 2026-04-29 09:18 | -12.49478 | 131.94873 | 18641 ft | 415 kts | 76° |
| 2026-04-29 09:18 | -12.48773 | 131.97704 | 18887 ft | 417 kts | 77° |
| 2026-04-29 09:18 | -12.48056 | 132.00587 | 19130 ft | 419 kts | 76° |
| 2026-04-29 09:19 | -12.47336 | 132.03477 | 19378 ft | 421 kts | 76° |
| 2026-04-29 09:19 | -12.46611 | 132.06383 | 19624 ft | 422 kts | 76° |
| 2026-04-29 09:19 | -12.45884 | 132.09291 | 20042 ft | 418 kts | 76° |
| 2026-04-29 09:19 | -12.45172 | 132.12139 | 20672 ft | 410 kts | 76° |
| 2026-04-29 09:20 | -12.44466 | 132.14959 | 21040 ft | 409 kts | 76° |
| 2026-04-29 09:20 | -12.43759 | 132.17786 | 21330 ft | 411 kts | 76° |
| 2026-04-29 09:20 | -12.43050 | 132.20621 | 21615 ft | 412 kts | 76° |
| 2026-04-29 09:20 | -12.42338 | 132.23468 | 21889 ft | 414 kts | 76° |
| 2026-04-29 09:21 | -12.41621 | 132.26328 | 22164 ft | 416 kts | 76° |
| 2026-04-29 09:21 | -12.40911 | 132.29163 | 22446 ft | 418 kts | 76° |
| 2026-04-29 09:21 | -12.40189 | 132.32043 | 22697 ft | 419 kts | 76° |
| 2026-04-29 09:21 | -12.39463 | 132.34938 | 22948 ft | 421 kts | 76° |
| 2026-04-29 09:22 | -12.38732 | 132.37849 | 23208 ft | 423 kts | 76° |
| 2026-04-29 09:22 | -12.37999 | 132.40770 | 23467 ft | 425 kts | 76° |
| 2026-04-29 09:22 | -12.37262 | 132.43701 | 23678 ft | 427 kts | 76° |
| 2026-04-29 09:22 | -12.36522 | 132.46647 | 23883 ft | 428 kts | 76° |
| 2026-04-29 09:23 | -12.35779 | 132.49603 | 24086 ft | 430 kts | 76° |
| 2026-04-29 09:23 | -12.35031 | 132.52574 | 24293 ft | 432 kts | 76° |
| 2026-04-29 09:23 | -12.34292 | 132.55511 | 24488 ft | 433 kts | 76° |
| 2026-04-29 09:23 | -12.33540 | 132.58497 | 24697 ft | 435 kts | 76° |
| 2026-04-29 09:24 | -12.32784 | 132.61498 | 24893 ft | 437 kts | 76° |
| 2026-04-29 09:24 | -12.32024 | 132.64510 | 25118 ft | 438 kts | 76° |
| 2026-04-29 09:24 | -12.31264 | 132.67524 | 25316 ft | 439 kts | 76° |
| 2026-04-29 09:24 | -12.30500 | 132.70554 | 25512 ft | 441 kts | 76° |
| 2026-04-29 09:25 | -12.29732 | 132.73596 | 25717 ft | 443 kts | 76° |
| 2026-04-29 09:25 | -12.28961 | 132.76649 | 25918 ft | 444 kts | 76° |
| 2026-04-29 09:25 | -12.28187 | 132.79713 | 26122 ft | 446 kts | 76° |
| 2026-04-29 09:25 | -12.27410 | 132.82785 | 26339 ft | 447 kts | 76° |
| 2026-04-29 09:26 | -12.26640 | 132.85829 | 26523 ft | 449 kts | 76° |
| 2026-04-29 09:26 | -12.25855 | 132.88929 | 26739 ft | 451 kts | 76° |
| 2026-04-29 09:26 | -12.25069 | 132.92037 | 26957 ft | 453 kts | 76° |
| 2026-04-29 09:26 | -12.24279 | 132.95154 | 27148 ft | 454 kts | 76° |
| 2026-04-29 09:27 | -12.23485 | 132.98287 | 27372 ft | 456 kts | 76° |
| 2026-04-29 09:27 | -12.22688 | 133.01430 | 27581 ft | 458 kts | 76° |
| 2026-04-29 09:27 | -12.21888 | 133.04584 | 27813 ft | 459 kts | 76° |
| 2026-04-29 09:27 | -12.21082 | 133.07756 | 28039 ft | 461 kts | 76° |
| 2026-04-29 09:28 | -12.20275 | 133.10935 | 28256 ft | 463 kts | 76° |
| 2026-04-29 09:28 | -12.19473 | 133.14090 | 28374 ft | 467 kts | 76° |
| 2026-04-29 09:28 | -12.18652 | 133.17322 | 28461 ft | 472 kts | 76° |
| 2026-04-29 09:28 | -12.17823 | 133.20581 | 28569 ft | 477 kts | 76° |
| 2026-04-29 09:29 | -12.16985 | 133.23873 | 28676 ft | 481 kts | 76° |
| 2026-04-29 09:29 | -12.15285 | 133.30550 | 28840 ft | 489 kts | 76° |
| 2026-04-29 09:29 | -12.14424 | 133.33925 | 28953 ft | 493 kts | 76° |
| 2026-04-29 09:30 | -12.13558 | 133.37322 | 29119 ft | 495 kts | 76° |
| 2026-04-29 09:30 | -12.12688 | 133.40729 | 29289 ft | 497 kts | 76° |
| 2026-04-29 09:30 | -12.11814 | 133.44152 | 29511 ft | 498 kts | 76° |
| 2026-04-29 09:30 | -12.10949 | 133.47537 | 29721 ft | 499 kts | 76° |
| 2026-04-29 09:31 | -12.10071 | 133.50973 | 29912 ft | 501 kts | 76° |
| 2026-04-29 09:31 | -12.09188 | 133.54425 | 30094 ft | 503 kts | 76° |
| 2026-04-29 09:31 | -12.08302 | 133.57884 | 30263 ft | 504 kts | 76° |
| 2026-04-29 09:31 | -12.07414 | 133.61351 | 30440 ft | 506 kts | 76° |
| 2026-04-29 09:32 | -12.06522 | 133.64835 | 30623 ft | 507 kts | 76° |
| 2026-04-29 09:32 | -12.05630 | 133.68313 | 30819 ft | 508 kts | 76° |
| 2026-04-29 09:32 | -12.04735 | 133.71803 | 31002 ft | 509 kts | 76° |
| 2026-04-29 09:32 | -12.03847 | 133.75265 | 31174 ft | 510 kts | 76° |
| 2026-04-29 09:33 | -12.02946 | 133.78774 | 31349 ft | 512 kts | 76° |
| 2026-04-29 09:33 | -12.02041 | 133.82294 | 31521 ft | 513 kts | 75° |
| 2026-04-29 09:33 | -12.01135 | 133.85820 | 31704 ft | 514 kts | 75° |
| 2026-04-29 09:33 | -12.00227 | 133.89352 | 31877 ft | 515 kts | 75° |
| 2026-04-29 09:34 | -11.99316 | 133.92891 | 32031 ft | 516 kts | 75° |
| 2026-04-29 09:34 | -11.98402 | 133.96441 | 32183 ft | 517 kts | 75° |
| 2026-04-29 09:34 | -11.97486 | 133.99998 | 32315 ft | 519 kts | 75° |
| 2026-04-29 09:34 | -11.96567 | 134.03563 | 32476 ft | 520 kts | 75° |
| 2026-04-29 09:35 | -11.95659 | 134.07087 | 32611 ft | 521 kts | 75° |
| 2026-04-29 09:35 | -11.94757 | 134.10669 | 32835 ft | 520 kts | 77° |
| 2026-04-29 09:35 | -11.94093 | 134.14296 | 33076 ft | 519 kts | 80° |
| 2026-04-29 09:35 | -11.93500 | 134.17929 | 33310 ft | 519 kts | 80° |
| 2026-04-29 09:36 | -11.92937 | 134.21564 | 33564 ft | 518 kts | 81° |
| 2026-04-29 09:36 | -11.92392 | 134.25183 | 33981 ft | 513 kts | 81° |
| 2026-04-29 09:36 | -11.91854 | 134.28781 | 34281 ft | 511 kts | 81° |
| 2026-04-29 09:36 | -11.91317 | 134.32370 | 34486 ft | 512 kts | 80° |
| 2026-04-29 09:37 | -11.90775 | 134.35971 | 34674 ft | 513 kts | 80° |
| 2026-04-29 09:37 | -11.90230 | 134.39578 | 34848 ft | 514 kts | 80° |
| 2026-04-29 09:37 | -11.89680 | 134.43199 | 35028 ft | 515 kts | 80° |
| 2026-04-29 09:37 | -11.89129 | 134.46816 | 35183 ft | 517 kts | 80° |
| 2026-04-29 09:38 | -11.88581 | 134.50411 | 35330 ft | 518 kts | 80° |
| 2026-04-29 09:38 | -11.88025 | 134.54052 | 35484 ft | 520 kts | 80° |
| 2026-04-29 09:38 | -11.87466 | 134.57707 | 35627 ft | 521 kts | 80° |
| 2026-04-29 09:38 | -11.86906 | 134.61373 | 35783 ft | 522 kts | 80° |
| 2026-04-29 09:39 | -11.86345 | 134.65041 | 35911 ft | 523 kts | 80° |
| 2026-04-29 09:39 | -11.85782 | 134.68715 | 36032 ft | 524 kts | 80° |
| 2026-04-29 09:39 | -11.85218 | 134.72396 | 36140 ft | 525 kts | 79° |
| 2026-04-29 09:39 | -11.84652 | 134.76086 | 36236 ft | 526 kts | 79° |
| 2026-04-29 09:40 | -11.83516 | 134.83482 | 36403 ft | 528 kts | 79° |
| 2026-04-29 09:40 | -11.82376 | 134.90895 | 36525 ft | 529 kts | 79° |
| 2026-04-29 09:41 | -11.81232 | 134.98316 | 36590 ft | 530 kts | 79° |
| 2026-04-29 09:41 | -11.80085 | 135.05745 | 36649 ft | 530 kts | 79° |
| 2026-04-29 09:42 | -11.78941 | 135.13143 | 36698 ft | 531 kts | 79° |
| 2026-04-29 09:42 | -11.77785 | 135.20602 | 36730 ft | 531 kts | 79° |
| 2026-04-29 09:43 | -11.76636 | 135.28004 | 36762 ft | 531 kts | 79° |
| 2026-04-29 09:43 | -11.75482 | 135.35433 | 36806 ft | 530 kts | 79° |
| 2026-04-29 09:44 | -11.74323 | 135.42868 | 36812 ft | 530 kts | 79° |
| 2026-04-29 09:44 | -11.73163 | 135.50305 | 36814 ft | 530 kts | 79° |
| 2026-04-29 09:45 | -11.72002 | 135.57734 | 36821 ft | 530 kts | 79° |
| 2026-04-29 09:45 | -11.70837 | 135.65169 | 36823 ft | 531 kts | 79° |
| 2026-04-29 09:46 | -11.69670 | 135.72611 | 36823 ft | 531 kts | 79° |
| 2026-04-29 09:46 | -11.68498 | 135.80067 | 36819 ft | 531 kts | 79° |
| 2026-04-29 09:47 | -11.67334 | 135.87466 | 36817 ft | 532 kts | 79° |
| 2026-04-29 09:47 | -11.66159 | 135.94921 | 36824 ft | 532 kts | 79° |
| 2026-04-29 09:48 | -11.64982 | 136.02370 | 36838 ft | 531 kts | 79° |
| 2026-04-29 09:48 | -11.63807 | 136.09799 | 36895 ft | 530 kts | 79° |
| 2026-04-29 09:49 | -11.62633 | 136.17211 | 36894 ft | 530 kts | 79° |
| 2026-04-29 09:49 | -11.61461 | 136.24590 | 36897 ft | 530 kts | 79° |
| 2026-04-29 09:50 | -11.60281 | 136.32008 | 36898 ft | 530 kts | 79° |
| 2026-04-29 09:50 | -11.59101 | 136.39426 | 36893 ft | 530 kts | 79° |
| 2026-04-29 09:51 | -11.57920 | 136.46843 | 36891 ft | 530 kts | 79° |
| 2026-04-29 09:51 | -11.56734 | 136.54276 | 36893 ft | 530 kts | 79° |
| 2026-04-29 09:52 | -11.55548 | 136.61704 | 36894 ft | 530 kts | 79° |
| 2026-04-29 09:52 | -11.54360 | 136.69124 | 36892 ft | 531 kts | 79° |
| 2026-04-29 09:53 | -11.53177 | 136.76506 | 36895 ft | 531 kts | 79° |
| 2026-04-29 09:53 | -11.51985 | 136.83930 | 36895 ft | 530 kts | 79° |
| 2026-04-29 09:54 | -11.50792 | 136.91349 | 36900 ft | 530 kts | 79° |
| 2026-04-29 09:54 | -11.49597 | 136.98768 | 36896 ft | 530 kts | 79° |
| 2026-04-29 09:55 | -11.48399 | 137.06191 | 36901 ft | 530 kts | 79° |
| 2026-04-29 09:55 | -11.47197 | 137.13625 | 36905 ft | 530 kts | 79° |
| 2026-04-29 09:56 | -11.45997 | 137.21041 | 36900 ft | 531 kts | 79° |
| 2026-04-29 09:56 | -11.44800 | 137.28424 | 36904 ft | 530 kts | 79° |
| 2026-04-29 09:57 | -11.43602 | 137.35804 | 37367 ft | 521 kts | 79° |
| 2026-04-29 09:57 | -11.43016 | 137.39419 | 37993 ft | 512 kts | 79° |
| 2026-04-29 09:57 | -11.42439 | 137.42973 | 38638 ft | 503 kts | 78° |
| 2026-04-29 09:58 | -11.41870 | 137.46472 | 39174 ft | 494 kts | 78° |
| 2026-04-29 09:58 | -11.41310 | 137.49914 | 39548 ft | 490 kts | 78° |
| 2026-04-29 09:58 | -11.40757 | 137.53297 | 39760 ft | 490 kts | 78° |
| 2026-04-29 09:58 | -11.40196 | 137.56724 | 39936 ft | 490 kts | 78° |
| 2026-04-29 09:59 | -11.39635 | 137.60149 | 40118 ft | 490 kts | 78° |
| 2026-04-29 09:59 | -11.39074 | 137.63578 | 40238 ft | 491 kts | 78° |
| 2026-04-29 09:59 | -11.38510 | 137.67016 | 40358 ft | 492 kts | 78° |
| 2026-04-29 09:59 | -11.37946 | 137.70461 | 40476 ft | 493 kts | 78° |
| 2026-04-29 10:00 | -11.37379 | 137.73918 | 40604 ft | 494 kts | 78° |
| 2026-04-29 10:00 | -11.36811 | 137.77381 | 40719 ft | 495 kts | 78° |
| 2026-04-29 10:00 | -11.36243 | 137.80845 | 40837 ft | 496 kts | 78° |
| 2026-04-29 10:00 | -11.35673 | 137.84318 | 40928 ft | 497 kts | 78° |
| 2026-04-29 10:01 | -11.34529 | 137.91274 | 40956 ft | 493 kts | 78° |
| 2026-04-29 10:01 | -11.33415 | 137.98063 | 40955 ft | 482 kts | 78° |
| 2026-04-29 10:02 | -11.32302 | 138.04808 | 40953 ft | 484 kts | 78° |
| 2026-04-29 10:02 | -11.31189 | 138.11530 | 40953 ft | 485 kts | 78° |
| 2026-04-29 10:03 | -11.30067 | 138.18316 | 40956 ft | 485 kts | 78° |
| 2026-04-29 10:03 | -11.28945 | 138.25088 | 40956 ft | 485 kts | 78° |
| 2026-04-29 10:04 | -11.27822 | 138.31863 | 40950 ft | 485 kts | 78° |
| 2026-04-29 10:04 | -11.26697 | 138.38636 | 40953 ft | 485 kts | 78° |
| 2026-04-29 10:05 | -11.25576 | 138.45372 | 40957 ft | 484 kts | 78° |
| 2026-04-29 10:05 | -11.24448 | 138.52148 | 40956 ft | 484 kts | 78° |
| 2026-04-29 10:06 | -11.23319 | 138.58914 | 40956 ft | 484 kts | 78° |
| 2026-04-29 10:06 | -11.22189 | 138.65681 | 40956 ft | 484 kts | 78° |
| 2026-04-29 10:07 | -11.21246 | 138.71315 | 40959 ft | 485 kts | 78° |
| 2026-04-29 10:07 | -11.20112 | 138.78089 | 40952 ft | 485 kts | 78° |
| 2026-04-29 10:08 | -11.18975 | 138.84867 | 40952 ft | 485 kts | 78° |
| 2026-04-29 10:08 | -11.17846 | 138.91591 | 40964 ft | 485 kts | 78° |
| 2026-04-29 10:09 | -11.16706 | 138.98367 | 40956 ft | 485 kts | 78° |
| 2026-04-29 10:09 | -11.15566 | 139.05136 | 40955 ft | 485 kts | 78° |
| 2026-04-29 10:10 | -11.14422 | 139.11919 | 40955 ft | 485 kts | 78° |
| 2026-04-29 10:10 | -11.13279 | 139.18686 | 40956 ft | 485 kts | 78° |
| 2026-04-29 10:11 | -11.12134 | 139.25456 | 40945 ft | 485 kts | 78° |
| 2026-04-29 10:11 | -11.10993 | 139.32187 | 40947 ft | 485 kts | 78° |
| 2026-04-29 10:12 | -11.09845 | 139.38955 | 40954 ft | 485 kts | 78° |
| 2026-04-29 10:12 | -11.08696 | 139.45722 | 40957 ft | 485 kts | 78° |
| 2026-04-29 10:13 | -11.07545 | 139.52486 | 40957 ft | 485 kts | 78° |
| 2026-04-29 10:13 | -11.06392 | 139.59254 | 40956 ft | 485 kts | 78° |
| 2026-04-29 10:14 | -11.05237 | 139.66029 | 40949 ft | 486 kts | 78° |
| 2026-04-29 10:14 | -11.04080 | 139.72802 | 40953 ft | 486 kts | 78° |
| 2026-04-29 10:15 | -11.02927 | 139.79546 | 40956 ft | 486 kts | 78° |
| 2026-04-29 10:15 | -11.01765 | 139.86330 | 40945 ft | 486 kts | 78° |
| 2026-04-29 10:16 | -11.00602 | 139.93110 | 40951 ft | 486 kts | 78° |
| 2026-04-29 10:16 | -10.99439 | 139.99880 | 40956 ft | 486 kts | 78° |
| 2026-04-29 10:17 | -10.98271 | 140.06674 | 40957 ft | 486 kts | 78° |
| 2026-04-29 10:17 | -10.97107 | 140.13434 | 40950 ft | 484 kts | 78° |
| 2026-04-29 10:18 | -10.95953 | 140.20134 | 40948 ft | 482 kts | 78° |
| 2026-04-29 10:18 | -10.94796 | 140.26847 | 40948 ft | 481 kts | 78° |
| 2026-04-29 10:19 | -10.93638 | 140.33560 | 40950 ft | 482 kts | 78° |
| 2026-04-29 10:19 | -10.92478 | 140.40275 | 40943 ft | 482 kts | 78° |
| 2026-04-29 10:20 | -10.91317 | 140.46987 | 40954 ft | 482 kts | 78° |
| 2026-04-29 10:20 | -10.90152 | 140.53714 | 40956 ft | 482 kts | 78° |
| 2026-04-29 10:21 | -10.88984 | 140.60447 | 40955 ft | 482 kts | 78° |
| 2026-04-29 10:21 | -10.87824 | 140.67130 | 40956 ft | 482 kts | 78° |
| 2026-04-29 10:22 | -10.86654 | 140.73861 | 40949 ft | 482 kts | 78° |
| 2026-04-29 10:22 | -10.85483 | 140.80585 | 40956 ft | 482 kts | 78° |
| 2026-04-29 10:23 | -10.84317 | 140.87269 | 40948 ft | 482 kts | 78° |
| 2026-04-29 10:23 | -10.83143 | 140.94002 | 40956 ft | 482 kts | 78° |
| 2026-04-29 10:24 | -10.81972 | 141.00702 | 40950 ft | 481 kts | 78° |
| 2026-04-29 10:24 | -10.80798 | 141.07407 | 40956 ft | 481 kts | 78° |
| 2026-04-29 10:25 | -10.79624 | 141.14104 | 40957 ft | 481 kts | 78° |
| 2026-04-29 10:25 | -10.78455 | 141.20760 | 40946 ft | 481 kts | 78° |
| 2026-04-29 10:26 | -10.77278 | 141.27460 | 40957 ft | 481 kts | 78° |
| 2026-04-29 10:26 | -10.76099 | 141.34163 | 40954 ft | 481 kts | 78° |
| 2026-04-29 10:27 | -10.74322 | 141.44245 | 40954 ft | 482 kts | 77° |
| 2026-04-29 10:28 | -10.73137 | 141.50959 | 40960 ft | 483 kts | 77° |
| 2026-04-29 10:28 | -10.71948 | 141.57683 | 40956 ft | 483 kts | 77° |
| 2026-04-29 10:29 | -10.70768 | 141.64352 | 40959 ft | 483 kts | 77° |
| 2026-04-29 10:29 | -10.69575 | 141.71085 | 40959 ft | 483 kts | 77° |
| 2026-04-29 10:30 | -10.68383 | 141.77802 | 40963 ft | 483 kts | 77° |
| 2026-04-29 10:30 | -10.67188 | 141.84527 | 40967 ft | 483 kts | 77° |
| 2026-04-29 10:31 | -10.65992 | 141.91255 | 40960 ft | 483 kts | 77° |
| 2026-04-29 10:31 | -10.64801 | 141.97940 | 40958 ft | 483 kts | 77° |
| 2026-04-29 10:32 | -10.63601 | 142.04666 | 40950 ft | 483 kts | 77° |
| 2026-04-29 10:32 | -10.62400 | 142.11395 | 40945 ft | 484 kts | 77° |
| 2026-04-29 10:33 | -10.61195 | 142.18134 | 40939 ft | 484 kts | 77° |
| 2026-04-29 10:33 | -10.59990 | 142.24865 | 40943 ft | 484 kts | 77° |
| 2026-04-29 10:34 | -10.58778 | 142.31549 | 40938 ft | 484 kts | 76° |
| 2026-04-29 10:34 | -10.57319 | 142.38220 | 40939 ft | 483 kts | 74° |
| 2026-04-29 10:35 | -10.55772 | 142.44871 | 40944 ft | 483 kts | 75° |
| 2026-04-29 10:35 | -10.54255 | 142.51529 | 40964 ft | 484 kts | 75° |
| 2026-04-29 10:36 | -10.52762 | 142.58204 | 40970 ft | 484 kts | 75° |
| 2026-04-29 10:36 | -10.51276 | 142.64878 | 40969 ft | 484 kts | 75° |
| 2026-04-29 10:37 | -10.49790 | 142.71551 | 40964 ft | 484 kts | 75° |
| 2026-04-29 10:37 | -10.48310 | 142.78178 | 40969 ft | 483 kts | 75° |
| 2026-04-29 10:38 | -10.46820 | 142.84840 | 40969 ft | 483 kts | 75° |
| 2026-04-29 10:38 | -10.45327 | 142.91508 | 40970 ft | 484 kts | 75° |
| 2026-04-29 10:39 | -10.43834 | 142.98174 | 40968 ft | 484 kts | 75° |
| 2026-04-29 10:39 | -10.42340 | 143.04835 | 40969 ft | 484 kts | 75° |
| 2026-04-29 10:40 | -10.40844 | 143.11495 | 40969 ft | 484 kts | 75° |
| 2026-04-29 10:40 | -10.39346 | 143.18163 | 40969 ft | 484 kts | 75° |
| 2026-04-29 10:41 | -10.37846 | 143.24828 | 40970 ft | 484 kts | 75° |
| 2026-04-29 10:41 | -10.36352 | 143.31460 | 40969 ft | 484 kts | 75° |
| 2026-04-29 10:42 | -10.34851 | 143.38123 | 40967 ft | 484 kts | 75° |
| 2026-04-29 10:42 | -10.33346 | 143.44788 | 40968 ft | 484 kts | 75° |
| 2026-04-29 10:43 | -10.31841 | 143.51454 | 40967 ft | 484 kts | 75° |
| 2026-04-29 10:43 | -10.30335 | 143.58115 | 40972 ft | 483 kts | 75° |
| 2026-04-29 10:44 | -10.28827 | 143.64777 | 40973 ft | 483 kts | 75° |
| 2026-04-29 10:44 | -10.27330 | 143.71385 | 40971 ft | 483 kts | 75° |
| 2026-04-29 10:45 | -10.25818 | 143.78047 | 40969 ft | 483 kts | 75° |
| 2026-04-29 10:45 | -10.24305 | 143.84715 | 40968 ft | 484 kts | 75° |
| 2026-04-29 10:46 | -10.22792 | 143.91373 | 40968 ft | 484 kts | 75° |
| 2026-04-29 10:46 | -10.21276 | 143.98024 | 40973 ft | 484 kts | 75° |
| 2026-04-29 10:47 | -10.19748 | 144.04672 | 40971 ft | 484 kts | 75° |
| 2026-04-29 10:47 | -10.18217 | 144.11324 | 40973 ft | 484 kts | 75° |
| 2026-04-29 10:48 | -10.16687 | 144.17974 | 40970 ft | 484 kts | 75° |
| 2026-04-29 10:48 | -10.15156 | 144.24626 | 40971 ft | 484 kts | 75° |
| 2026-04-29 10:49 | -10.13632 | 144.31246 | 40969 ft | 484 kts | 75° |
| 2026-04-29 10:49 | -10.12100 | 144.37890 | 40969 ft | 483 kts | 75° |
| 2026-04-29 10:50 | -10.10567 | 144.44533 | 40965 ft | 483 kts | 75° |
| 2026-04-29 10:50 | -10.09033 | 144.51172 | 40967 ft | 483 kts | 75° |
| 2026-04-29 10:51 | -10.07496 | 144.57822 | 40964 ft | 484 kts | 75° |
| 2026-04-29 10:51 | -10.05951 | 144.64495 | 40962 ft | 484 kts | 75° |
| 2026-04-29 10:52 | -10.04421 | 144.71102 | 40964 ft | 484 kts | 75° |
| 2026-04-29 10:52 | -10.02878 | 144.77753 | 40964 ft | 484 kts | 75° |
| 2026-04-29 10:53 | -10.01335 | 144.84401 | 40963 ft | 484 kts | 75° |
| 2026-04-29 10:53 | -9.99790 | 144.91050 | 40961 ft | 484 kts | 75° |
| 2026-04-29 10:54 | -9.98254 | 144.97657 | 40963 ft | 484 kts | 75° |
| 2026-04-29 10:54 | -9.96705 | 145.04313 | 40962 ft | 484 kts | 75° |
| 2026-04-29 10:55 | -9.95416 | 145.09842 | 40963 ft | 484 kts | 75° |
| 2026-04-29 10:55 | -9.93866 | 145.16489 | 40959 ft | 484 kts | 75° |
| 2026-04-29 10:56 | -9.92315 | 145.23135 | 40958 ft | 484 kts | 74° |
| 2026-04-29 10:56 | -9.90760 | 145.29791 | 40959 ft | 484 kts | 74° |
| 2026-04-29 10:57 | -9.89204 | 145.36447 | 40959 ft | 484 kts | 74° |
| 2026-04-29 10:57 | -9.87647 | 145.43099 | 40957 ft | 484 kts | 74° |
| 2026-04-29 10:58 | -9.86089 | 145.49751 | 40958 ft | 484 kts | 74° |
| 2026-04-29 10:58 | -9.84538 | 145.56363 | 40954 ft | 485 kts | 74° |
| 2026-04-29 10:59 | -9.82976 | 145.63018 | 40959 ft | 485 kts | 74° |
| 2026-04-29 10:59 | -9.81414 | 145.69665 | 40955 ft | 485 kts | 74° |
| 2026-04-29 11:00 | -9.79849 | 145.76325 | 40956 ft | 485 kts | 74° |
| 2026-04-29 11:00 | -9.78284 | 145.82973 | 40953 ft | 485 kts | 74° |
| 2026-04-29 11:01 | -9.76445 | 145.89529 | 40957 ft | 481 kts | 63° |
| 2026-04-29 11:01 | -9.74800 | 145.92404 | 40957 ft | 474 kts | 50° |
| 2026-04-29 11:01 | -9.72787 | 145.95044 | 40954 ft | 473 kts | 48° |
| 2026-04-29 11:02 | -9.68607 | 146.00210 | 40949 ft | 474 kts | 47° |
| 2026-04-29 11:02 | -9.64403 | 146.05362 | 40948 ft | 473 kts | 47° |
| 2026-04-29 11:03 | -9.60225 | 146.10476 | 40946 ft | 474 kts | 47° |
| 2026-04-29 11:03 | -9.56021 | 146.15620 | 40946 ft | 474 kts | 47° |
| 2026-04-29 11:04 | -9.51812 | 146.20767 | 40943 ft | 474 kts | 47° |
| 2026-04-29 11:04 | -9.47596 | 146.25920 | 40944 ft | 474 kts | 47° |
| 2026-04-29 11:05 | -9.43391 | 146.31058 | 40945 ft | 474 kts | 47° |
| 2026-04-29 11:05 | -9.39198 | 146.36207 | 40937 ft | 474 kts | 49° |
| 2026-04-29 11:05 | -9.37524 | 146.39094 | 40945 ft | 480 kts | 66° |
| 2026-04-29 11:06 | -9.36576 | 146.42341 | 40943 ft | 481 kts | 76° |
| 2026-04-29 11:06 | -9.35197 | 146.48993 | 40939 ft | 484 kts | 76° |
| 2026-04-29 11:07 | -9.33762 | 146.55654 | 40943 ft | 484 kts | 75° |
| 2026-04-29 11:07 | -9.32296 | 146.62261 | 40941 ft | 484 kts | 75° |
| 2026-04-29 11:08 | -9.30804 | 146.68914 | 40933 ft | 484 kts | 75° |
| 2026-04-29 11:08 | -9.29309 | 146.75559 | 40935 ft | 484 kts | 75° |
| 2026-04-29 11:09 | -9.27811 | 146.82207 | 40938 ft | 484 kts | 75° |
| 2026-04-29 11:09 | -9.26321 | 146.88811 | 40938 ft | 484 kts | 75° |
| 2026-04-29 11:10 | -9.24823 | 146.95463 | 40940 ft | 483 kts | 75° |
| 2026-04-29 11:10 | -9.23963 | 146.98740 | 40932 ft | 480 kts | 64° |
| 2026-04-29 11:10 | -9.22387 | 147.01689 | 40940 ft | 474 kts | 53° |
| 2026-04-29 11:11 | -9.19425 | 147.07635 | 40944 ft | 481 kts | 76° |
| 2026-04-29 11:11 | -9.19148 | 147.11010 | 40941 ft | 484 kts | 92° |
| 2026-04-29 11:11 | -9.19777 | 147.14350 | 40941 ft | 486 kts | 109° |
| 2026-04-29 11:11 | -9.21269 | 147.17409 | 40951 ft | 486 kts | 125° |
| 2026-04-29 11:12 | -9.23474 | 147.19916 | 40950 ft | 484 kts | 141° |
| 2026-04-29 11:12 | -9.28674 | 147.24280 | 40948 ft | 487 kts | 139° |
| 2026-04-29 11:13 | -9.33688 | 147.28915 | 40950 ft | 488 kts | 138° |
| 2026-04-29 11:13 | -9.38684 | 147.33565 | 40953 ft | 488 kts | 138° |
| 2026-04-29 11:14 | -9.43689 | 147.38224 | 40973 ft | 488 kts | 138° |
| 2026-04-29 11:14 | -9.48690 | 147.42863 | 40967 ft | 487 kts | 138° |
| 2026-04-29 11:15 | -9.53677 | 147.47482 | 40967 ft | 487 kts | 138° |
| 2026-04-29 11:15 | -9.58679 | 147.52123 | 40966 ft | 487 kts | 139° |
| 2026-04-29 11:16 | -9.63669 | 147.56802 | 40964 ft | 489 kts | 138° |
| 2026-04-29 11:16 | -9.68639 | 147.61464 | 40977 ft | 490 kts | 138° |
| 2026-04-29 11:17 | -9.73641 | 147.66154 | 40959 ft | 490 kts | 138° |
| 2026-04-29 11:17 | -9.78657 | 147.70835 | 40969 ft | 490 kts | 138° |
| 2026-04-29 11:18 | -9.83678 | 147.75514 | 40968 ft | 490 kts | 139° |
| 2026-04-29 11:18 | -9.88696 | 147.80188 | 40954 ft | 490 kts | 139° |
| 2026-04-29 11:19 | -9.93687 | 147.84835 | 40963 ft | 490 kts | 139° |
| 2026-04-29 11:19 | -9.98692 | 147.89524 | 40963 ft | 490 kts | 139° |
| 2026-04-29 11:20 | -10.03706 | 147.94223 | 40960 ft | 490 kts | 139° |
| 2026-04-29 11:20 | -10.08727 | 147.98914 | 40958 ft | 491 kts | 139° |
| 2026-04-29 11:21 | -10.13753 | 148.03607 | 40954 ft | 491 kts | 139° |
| 2026-04-29 11:21 | -10.18764 | 148.08284 | 40955 ft | 491 kts | 139° |
| 2026-04-29 11:22 | -10.23799 | 148.12980 | 40953 ft | 491 kts | 139° |
| 2026-04-29 11:22 | -10.28828 | 148.17669 | 40957 ft | 491 kts | 139° |
| 2026-04-29 11:23 | -10.33866 | 148.22378 | 40953 ft | 491 kts | 139° |
| 2026-04-29 11:23 | -10.38869 | 148.27055 | 40955 ft | 492 kts | 139° |
| 2026-04-29 11:24 | -10.43906 | 148.31761 | 40954 ft | 492 kts | 139° |
| 2026-04-29 11:24 | -10.48948 | 148.36468 | 40956 ft | 492 kts | 139° |
| 2026-04-29 11:25 | -10.53991 | 148.41173 | 40958 ft | 492 kts | 139° |
| 2026-04-29 11:25 | -10.59038 | 148.45879 | 40957 ft | 492 kts | 139° |
| 2026-04-29 11:26 | -10.66594 | 148.52950 | 40960 ft | 492 kts | 139° |
| 2026-04-29 11:26 | -10.71587 | 148.57646 | 40961 ft | 492 kts | 139° |
| 2026-04-29 11:27 | -10.76614 | 148.62372 | 40961 ft | 492 kts | 139° |
| 2026-04-29 11:27 | -10.81641 | 148.67095 | 40960 ft | 492 kts | 139° |
| 2026-04-29 11:28 | -10.86678 | 148.71825 | 40963 ft | 492 kts | 139° |
| 2026-04-29 11:28 | -10.91712 | 148.76550 | 40961 ft | 492 kts | 139° |
| 2026-04-29 11:29 | -10.96741 | 148.81276 | 40963 ft | 492 kts | 139° |
| 2026-04-29 11:29 | -11.01769 | 148.86018 | 40964 ft | 492 kts | 139° |
| 2026-04-29 11:30 | -11.06790 | 148.90761 | 40963 ft | 492 kts | 139° |
| 2026-04-29 11:30 | -11.11775 | 148.95471 | 40968 ft | 492 kts | 139° |
| 2026-04-29 11:31 | -11.16807 | 149.00222 | 40962 ft | 492 kts | 139° |
| 2026-04-29 11:31 | -11.21838 | 149.04969 | 40957 ft | 492 kts | 139° |
| 2026-04-29 11:32 | -11.26858 | 149.09718 | 40970 ft | 492 kts | 139° |
| 2026-04-29 11:32 | -11.31880 | 149.14469 | 40972 ft | 492 kts | 139° |
| 2026-04-29 11:33 | -11.36870 | 149.19204 | 40970 ft | 493 kts | 139° |
| 2026-04-29 11:33 | -11.41881 | 149.23970 | 40966 ft | 493 kts | 139° |
| 2026-04-29 11:34 | -11.46899 | 149.28741 | 40964 ft | 493 kts | 139° |
| 2026-04-29 11:34 | -11.51916 | 149.33508 | 40969 ft | 493 kts | 139° |
| 2026-04-29 11:35 | -11.56947 | 149.38286 | 40964 ft | 493 kts | 139° |
| 2026-04-29 11:35 | -11.61962 | 149.43047 | 40968 ft | 493 kts | 139° |
| 2026-04-29 11:36 | -11.66979 | 149.47806 | 40970 ft | 493 kts | 139° |
| 2026-04-29 11:36 | -11.71987 | 149.52585 | 40967 ft | 494 kts | 139° |
| 2026-04-29 11:37 | -11.76967 | 149.57368 | 40970 ft | 494 kts | 139° |
| 2026-04-29 11:37 | -11.81975 | 149.62178 | 40966 ft | 494 kts | 139° |
| 2026-04-29 11:38 | -11.86981 | 149.66994 | 40970 ft | 494 kts | 139° |
| 2026-04-29 11:38 | -11.91991 | 149.71812 | 40970 ft | 494 kts | 139° |
| 2026-04-29 11:39 | -11.96963 | 149.76592 | 40971 ft | 494 kts | 139° |
| 2026-04-29 11:39 | -12.01966 | 149.81399 | 40970 ft | 494 kts | 139° |
| 2026-04-29 11:40 | -12.06972 | 149.86222 | 40968 ft | 495 kts | 139° |
| 2026-04-29 11:40 | -12.11970 | 149.91066 | 40966 ft | 495 kts | 139° |
| 2026-04-29 11:41 | -12.16966 | 149.95918 | 40970 ft | 495 kts | 139° |
| 2026-04-29 11:41 | -12.21962 | 150.00769 | 40973 ft | 495 kts | 139° |
| 2026-04-29 11:42 | -12.26925 | 150.05587 | 40973 ft | 495 kts | 139° |
| 2026-04-29 11:42 | -12.31932 | 150.10447 | 40973 ft | 495 kts | 139° |
| 2026-04-29 11:43 | -12.36088 | 150.14477 | 40967 ft | 495 kts | 139° |
| 2026-04-29 11:43 | -12.41089 | 150.19330 | 40975 ft | 495 kts | 140° |
| 2026-04-29 11:44 | -12.46079 | 150.24210 | 40970 ft | 495 kts | 140° |
| 2026-04-29 11:44 | -12.51063 | 150.29086 | 40978 ft | 495 kts | 140° |
| 2026-04-29 11:45 | -12.56017 | 150.33932 | 40976 ft | 495 kts | 140° |
| 2026-04-29 11:45 | -12.61004 | 150.38805 | 40979 ft | 495 kts | 140° |
| 2026-04-29 11:46 | -12.65992 | 150.43676 | 40972 ft | 495 kts | 140° |
| 2026-04-29 11:46 | -12.70980 | 150.48550 | 40971 ft | 495 kts | 140° |
| 2026-04-29 11:47 | -12.75966 | 150.53436 | 40973 ft | 495 kts | 140° |
| 2026-04-29 11:47 | -12.80952 | 150.58318 | 40975 ft | 495 kts | 140° |
| 2026-04-29 11:48 | -12.85933 | 150.63195 | 40976 ft | 495 kts | 140° |
| 2026-04-29 11:48 | -12.90884 | 150.68039 | 40981 ft | 495 kts | 140° |
| 2026-04-29 11:49 | -12.95904 | 150.72947 | 40977 ft | 495 kts | 140° |
| 2026-04-29 11:49 | -13.00857 | 150.77793 | 40968 ft | 495 kts | 140° |
| 2026-04-29 11:50 | -13.05836 | 150.82678 | 40971 ft | 495 kts | 140° |
| 2026-04-29 11:50 | -13.10826 | 150.87572 | 40977 ft | 495 kts | 140° |
| 2026-04-29 11:51 | -13.15814 | 150.92481 | 40977 ft | 497 kts | 140° |
| 2026-04-29 11:51 | -13.20814 | 150.97405 | 40977 ft | 498 kts | 140° |
| 2026-04-29 11:52 | -13.25774 | 151.02302 | 40976 ft | 499 kts | 139° |
| 2026-04-29 11:52 | -13.29911 | 151.08059 | 40980 ft | 506 kts | 118° |
| 2026-04-29 11:53 | -13.31186 | 151.11424 | 40979 ft | 508 kts | 105° |
| 2026-04-29 11:53 | -13.31800 | 151.14992 | 40977 ft | 508 kts | 93° |
| 2026-04-29 11:53 | -13.31710 | 151.18608 | 40976 ft | 506 kts | 81° |
| 2026-04-29 11:53 | -13.30928 | 151.22120 | 40978 ft | 503 kts | 68° |
| 2026-04-29 11:54 | -13.29512 | 151.25370 | 40978 ft | 498 kts | 56° |
| 2026-04-29 11:54 | -13.27584 | 151.28317 | 40974 ft | 495 kts | 50° |